Time;durP1;ratioP1;P1;durP2;ratioP2;P2;SDS_P1;SDS_P2;PMS_P1;PMS_P2;Temp;Humidity;BMP_temperature;BMP_pressure;BME280_temperature;BME280_humidity;BME280_pressure;Samples;Min_cycle;Max_cycle;Signal;HPM_P1;HPM_P2
2022/06/28 00:02:01;;;;;;;;;;;12.60;97.50;;;;;;5014426;28;20237;-73
2022/06/28 00:04:29;;;;;;;;;;;12.40;98.30;;;;;;5015203;28;19921;-73
2022/06/28 00:06:56;;;;;;;;;;;12.40;98.20;;;;;;5013643;28;19921;-73
2022/06/28 00:09:23;;;;;;;;;;;12.40;98.00;;;;;;5014610;28;19928;-73
2022/06/28 00:11:51;;;;;;;;;;;12.40;98.20;;;;;;5014665;28;19921;-73
2022/06/28 00:17:05;;;;;;;;;;;12.40;98.10;;;;;;5014670;28;19922;-73
2022/06/28 00:19:32;;;;;;;;;;;12.40;98.20;;;;;;5015815;28;20380;-73
2022/06/28 00:22:00;;;;;;;;;;;12.30;98.40;;;;;;5016980;28;19921;-73
2022/06/28 00:24:30;;;;;;;;;;;12.30;98.50;;;;;;5018347;28;19922;-73
2022/06/28 00:26:58;;;;;;;;;;;12.30;98.80;;;;;;5000021;28;19922;-73
2022/06/28 00:29:25;;;;;;;;;;;12.30;99.00;;;;;;4984648;28;19921;-73
2022/06/28 00:31:52;;;;;;;;;;;12.40;98.90;;;;;;5018104;28;20275;-73
2022/06/28 00:34:20;;;;;;;;;;;12.30;98.90;;;;;;4999709;28;19921;-73
2022/06/28 00:36:47;;;;;;;;;;;12.30;98.80;;;;;;5018051;28;19921;-73
2022/06/28 00:39:15;;;;;;;;;;;12.30;99.00;;;;;;5000647;28;19940;-73
2022/06/28 00:41:43;;;;;;;;;;;12.20;99.30;;;;;;4999461;28;19925;-73
2022/06/28 00:44:11;;;;;;;;;;;12.20;99.20;;;;;;5017854;28;19928;-73
2022/06/28 00:46:38;;;;;;;;;;;12.20;99.30;;;;;;5017078;28;19928;-73
2022/06/28 00:49:06;;;;;;;;;;;12.20;99.40;;;;;;5017849;28;19922;-73
2022/06/28 00:51:33;;;;;;;;;;;12.20;99.30;;;;;;5000655;28;20279;-73
2022/06/28 00:54:01;;;;;;;;;;;12.20;99.60;;;;;;4999438;28;19928;-73
2022/06/28 00:56:28;;;;;;;;;;;12.20;99.60;;;;;;5000409;28;20375;-73
2022/06/28 00:58:55;;;;;;;;;;;12.10;99.70;;;;;;5000435;28;19921;-73
2022/06/28 01:01:24;;;;;;;;;;;12.10;99.70;;;;;;4999344;28;19933;-73
2022/06/28 01:03:52;;;;;;;;;;;12.10;99.90;;;;;;5000742;28;19922;-73
2022/06/28 01:06:20;;;;;;;;;;;12.00;99.90;;;;;;4999403;28;19921;-73
2022/06/28 01:08:48;;;;;;;;;;;12.00;99.90;;;;;;5000533;28;19925;-73
2022/06/28 01:11:19;;;;;;;;;;;12.00;99.90;;;;;;4984517;28;19921;-73
2022/06/28 01:13:54;;;;;;;;;;;12.10;99.90;;;;;;4999064;28;19922;-73
2022/06/28 01:16:26;;;;;;;;;;;11.80;99.90;;;;;;5031843;28;19987;-73
2022/06/28 01:19:04;;;;;;;;;;;12.00;99.90;;;;;;5036116;28;19931;-73
2022/06/28 01:21:36;;;;;;;;;;;12.00;99.90;;;;;;5034929;28;19921;-73
2022/06/28 01:24:04;;;;;;;;;;;11.90;99.90;;;;;;5036204;28;19925;-73
2022/06/28 01:26:58;;;;;;;;;;;11.90;99.90;;;;;;5019669;28;20355;-73
2022/06/28 01:29:27;;;;;;;;;;;11.90;99.90;;;;;;5036169;28;19936;-73
2022/06/28 01:32:03;;;;;;;;;;;11.90;99.90;;;;;;5019857;28;19924;-73
2022/06/28 01:34:35;;;;;;;;;;;11.80;99.90;;;;;;5034849;28;20416;-73
2022/06/28 01:37:03;;;;;;;;;;;11.80;99.90;;;;;;5036955;28;19925;-73
2022/06/28 01:39:31;;;;;;;;;;;11.80;99.90;;;;;;5035885;28;19928;-73
2022/06/28 01:41:59;;;;;;;;;;;11.70;99.90;;;;;;5034612;28;19931;-73
2022/06/28 01:44:29;;;;;;;;;;;11.70;99.90;;;;;;5036057;28;19921;-73
2022/06/28 01:47:05;;;;;;;;;;;11.70;99.90;;;;;;5034660;28;19925;-73
2022/06/28 01:49:55;;;;;;;;;;;11.70;99.90;;;;;;5036312;28;19921;-73
2022/06/28 01:52:26;;;;;;;;;;;11.60;99.90;;;;;;5035589;28;19921;-73
2022/06/28 01:54:55;;;;;;;;;;;11.60;99.90;;;;;;5034426;28;19928;-73
2022/06/28 01:57:23;;;;;;;;;;;11.60;99.90;;;;;;5035506;28;20351;-73
2022/06/28 01:59:55;;;;;;;;;;;11.60;99.90;;;;;;5034337;28;20135;-73
2022/06/28 02:02:46;;;;;;;;;;;11.50;99.90;;;;;;5035165;28;19921;-73
2022/06/28 02:05:32;;;;;;;;;;;11.50;99.90;;;;;;5035888;28;19921;-73
2022/06/28 02:08:00;;;;;;;;;;;11.50;99.90;;;;;;5017753;28;19921;-73
2022/06/28 02:10:39;;;;;;;;;;;11.50;99.90;;;;;;5035443;28;19920;-73
2022/06/28 02:13:07;;;;;;;;;;;11.50;99.90;;;;;;5034233;28;19921;-73
2022/06/28 02:15:34;;;;;;;;;;;11.50;99.90;;;;;;5025208;28;19932;-73
2022/06/28 02:18:02;;;;;;;;;;;11.40;99.90;;;;;;4983319;28;19932;-73
2022/06/28 02:20:29;;;;;;;;;;;11.50;99.90;;;;;;4997854;28;20004;-73
2022/06/28 02:22:57;;;;;;;;;;;11.50;99.90;;;;;;4998844;28;19921;-73
2022/06/28 02:25:24;;;;;;;;;;;11.50;99.90;;;;;;4998783;28;19921;-73
2022/06/28 02:27:52;;;;;;;;;;;11.50;99.90;;;;;;5014798;28;19932;-73
2022/06/28 02:30:21;;;;;;;;;;;11.50;99.90;;;;;;4998725;28;19929;-73
2022/06/28 02:32:49;;;;;;;;;;;11.50;99.90;;;;;;4999358;28;19929;-73
2022/06/28 02:40:50;;;;;;;;;;;11.40;99.90;;;;;;4997690;28;19921;-73
2022/06/28 02:43:17;;;;;;;;;;;11.40;99.90;;;;;;5015414;28;19922;-73
2022/06/28 02:45:46;;;;;;;;;;;11.40;99.90;;;;;;5015987;28;19921;-73
2022/06/28 02:48:14;;;;;;;;;;;11.40;99.90;;;;;;4997788;28;19993;-73
2022/06/28 02:50:42;;;;;;;;;;;11.30;99.90;;;;;;4998322;28;19929;-73
2022/06/28 02:53:10;;;;;;;;;;;11.30;99.90;;;;;;5014953;28;19921;-73
2022/06/28 02:55:38;;;;;;;;;;;11.30;99.90;;;;;;5015531;28;19921;-73
2022/06/28 02:58:06;;;;;;;;;;;11.30;99.90;;;;;;4998402;28;19921;-73
2022/06/28 03:00:34;;;;;;;;;;;11.20;99.90;;;;;;5014410;28;19932;-73
2022/06/28 03:03:02;;;;;;;;;;;11.20;99.90;;;;;;4982325;28;19921;-73
2022/06/28 03:05:30;;;;;;;;;;;11.10;99.90;;;;;;4998353;28;19925;-73
2022/06/28 03:07:57;;;;;;;;;;;11.10;99.90;;;;;;5014619;28;19940;-73
2022/06/28 03:10:27;;;;;;;;;;;11.10;99.90;;;;;;4998542;28;20363;-73
2022/06/28 03:12:54;;;;;;;;;;;11.10;99.90;;;;;;5015542;28;19925;-73
2022/06/28 03:15:22;;;;;;;;;;;11.10;99.90;;;;;;5012905;28;19921;-73
2022/06/28 03:17:57;;;;;;;;;;;11.00;99.90;;;;;;5034167;28;19948;-73
2022/06/28 03:20:25;;;;;;;;;;;10.90;99.90;;;;;;5016716;28;19925;-73
2022/06/28 03:22:52;;;;;;;;;;;10.20;99.90;;;;;;5034133;28;19928;-73
2022/06/28 03:25:19;;;;;;;;;;;11.00;99.90;;;;;;5034916;28;19928;-73
2022/06/28 03:27:48;;;;;;;;;;;11.00;99.90;;;;;;5016579;28;20283;-73
2022/06/28 03:30:16;;;;;;;;;;;11.10;99.90;;;;;;5034188;28;20339;-73
2022/06/28 03:32:45;;;;;;;;;;;11.00;99.90;;;;;;5035171;28;19925;-73
2022/06/28 03:35:18;;;;;;;;;;;11.00;99.90;;;;;;5032966;28;20352;-73
2022/06/28 03:37:45;;;;;;;;;;;11.10;99.90;;;;;;5034181;28;19928;-73
2022/06/28 03:40:14;;;;;;;;;;;11.00;99.90;;;;;;5032887;28;19932;-73
2022/06/28 03:42:47;;;;;;;;;;;11.00;99.90;;;;;;5017579;28;19920;-73
2022/06/28 03:45:15;;;;;;;;;;;11.00;99.90;;;;;;5033859;28;19921;-73
2022/06/28 03:47:54;;;;;;;;;;;10.90;99.90;;;;;;5033084;28;19989;-73
2022/06/28 03:50:40;;;;;;;;;;;10.90;99.90;;;;;;5034983;28;19948;-73
2022/06/28 03:53:18;;;;;;;;;;;10.90;99.90;;;;;;5018165;28;19921;-73
2022/06/28 03:56:02;;;;;;;;;;;10.90;99.90;;;;;;5037961;28;19989;-73
2022/06/28 03:58:30;;;;;;;;;;;10.90;99.90;;;;;;5037910;28;19932;-73
2022/06/28 04:00:57;;;;;;;;;;;10.90;99.90;;;;;;5036628;28;19921;-73
2022/06/28 04:03:26;;;;;;;;;;;10.80;99.90;;;;;;5037788;28;19927;-73
2022/06/28 04:05:53;;;;;;;;;;;10.80;99.90;;;;;;5037546;28;19921;-73
2022/06/28 04:08:21;;;;;;;;;;;10.80;99.90;;;;;;5036495;28;19928;-73
2022/06/28 04:11:13;;;;;;;;;;;10.80;99.90;;;;;;5037727;28;19921;-73
2022/06/28 04:13:46;;;;;;;;;;;10.70;99.90;;;;;;5020289;28;19921;-73
2022/06/28 04:16:14;;;;;;;;;;;10.70;99.90;;;;;;5037099;28;19921;-73
2022/06/28 04:18:43;;;;;;;;;;;10.70;99.90;;;;;;5021416;28;19944;-74
2022/06/28 04:21:26;;;;;;;;;;;10.60;99.90;;;;;;5036040;28;19921;-73
2022/06/28 04:24:14;;;;;;;;;;;10.60;99.90;;;;;;5030911;28;20373;-73
2022/06/28 04:27:20;;;;;;;;;;;10.60;99.90;;;;;;4996237;28;19922;-73
2022/06/28 04:29:47;;;;;;;;;;;10.60;99.90;;;;;;4997206;28;19922;-73
2022/06/28 04:32:34;;;;;;;;;;;10.60;99.90;;;;;;5014345;28;20266;-73
2022/06/28 04:35:03;;;;;;;;;;;10.60;99.90;;;;;;5035736;28;19925;-73
2022/06/28 04:37:31;;;;;;;;;;;10.70;99.90;;;;;;5036962;28;19932;-73
2022/06/28 04:40:03;;;;;;;;;;;10.70;99.90;;;;;;5035874;28;19921;-73
2022/06/28 04:42:39;;;;;;;;;;;10.80;99.90;;;;;;5020652;28;19940;-73
2022/06/28 04:45:09;;;;;;;;;;;10.90;99.90;;;;;;5037024;28;20260;-73
2022/06/28 04:47:50;;;;;;;;;;;10.90;99.90;;;;;;5035641;28;20332;-73
2022/06/28 04:50:18;;;;;;;;;;;11.00;99.90;;;;;;5037592;28;19920;-73
2022/06/28 04:52:45;;;;;;;;;;;11.00;99.90;;;;;;5037178;28;19932;-73
2022/06/28 04:55:13;;;;;;;;;;;11.20;99.90;;;;;;5036340;28;19921;-73
2022/06/28 04:57:54;;;;;;;;;;;11.20;99.90;;;;;;5036789;28;19928;-73
2022/06/28 05:00:21;;;;;;;;;;;11.30;99.90;;;;;;5019497;28;19921;-73
2022/06/28 05:03:05;;;;;;;;;;;11.40;99.90;;;;;;5036684;28;19992;-73
2022/06/28 05:05:56;;;;;;;;;;;11.40;99.90;;;;;;5037030;28;19921;-73
2022/06/28 05:08:23;;;;;;;;;;;11.50;99.90;;;;;;5036026;28;19928;-74
2022/06/28 05:11:01;;;;;;;;;;;11.60;99.90;;;;;;5036412;28;19921;-74
2022/06/28 05:13:47;;;;;;;;;;;11.70;99.90;;;;;;5035316;28;20282;-74
2022/06/28 05:16:16;;;;;;;;;;;11.70;99.90;;;;;;5036027;28;19928;-74
2022/06/28 05:18:45;;;;;;;;;;;11.80;99.90;;;;;;5036091;28;19925;-73
2022/06/28 05:21:15;;;;;;;;;;;11.90;99.90;;;;;;5035228;28;19936;-74
2022/06/28 05:23:45;;;;;;;;;;;12.00;99.90;;;;;;5020109;28;19925;-74
2022/06/28 05:26:35;;;;;;;;;;;12.00;99.90;;;;;;5035122;28;19924;-74
2022/06/28 05:29:22;;;;;;;;;;;12.10;99.90;;;;;;5036605;28;19921;-74
2022/06/28 05:31:50;;;;;;;;;;;12.20;99.90;;;;;;5035937;28;20283;-74
2022/06/28 05:34:20;;;;;;;;;;;12.30;99.90;;;;;;5035742;28;19921;-73
2022/06/28 05:36:48;;;;;;;;;;;12.40;99.90;;;;;;5036027;28;19920;-74
2022/06/28 05:39:15;;;;;;;;;;;12.50;99.90;;;;;;5035848;28;19925;-73
2022/06/28 05:41:43;;;;;;;;;;;12.60;99.90;;;;;;5035401;28;19930;-73
2022/06/28 05:44:11;;;;;;;;;;;12.70;99.90;;;;;;5019779;28;19921;-73
2022/06/28 05:46:41;;;;;;;;;;;12.80;99.90;;;;;;5034772;28;19921;-74
2022/06/28 05:49:09;;;;;;;;;;;12.80;99.90;;;;;;5019546;28;19921;-73
2022/06/28 05:51:37;;;;;;;;;;;13.00;99.90;;;;;;5036559;28;19928;-74
2022/06/28 05:54:06;;;;;;;;;;;13.10;99.90;;;;;;5034352;28;19921;-74
2022/06/28 05:56:35;;;;;;;;;;;13.10;99.90;;;;;;5036675;28;19921;-74
2022/06/28 05:59:04;;;;;;;;;;;13.20;99.90;;;;;;5035688;28;19921;-74
2022/06/28 06:01:32;;;;;;;;;;;13.30;99.90;;;;;;5035033;28;20374;-74
2022/06/28 06:04:00;;;;;;;;;;;13.30;99.90;;;;;;5035317;28;19928;-74
2022/06/28 06:06:28;;;;;;;;;;;13.30;99.90;;;;;;5034931;28;19921;-74
2022/06/28 06:08:57;;;;;;;;;;;13.40;99.90;;;;;;5018827;28;19920;-74
2022/06/28 06:11:24;;;;;;;;;;;13.50;99.90;;;;;;5036184;28;19936;-74
2022/06/28 06:13:52;;;;;;;;;;;13.50;99.90;;;;;;5034179;28;20253;-74
2022/06/28 06:16:19;;;;;;;;;;;13.60;99.90;;;;;;5018801;28;19921;-74
2022/06/28 06:18:48;;;;;;;;;;;13.60;99.90;;;;;;5015996;28;19921;-74
2022/06/28 06:21:15;;;;;;;;;;;13.60;99.90;;;;;;4997720;28;19925;-74
2022/06/28 06:23:43;;;;;;;;;;;13.70;99.90;;;;;;4983215;28;20366;-74
2022/06/28 06:26:24;;;;;;;;;;;13.70;99.90;;;;;;4998108;28;19921;-74
2022/06/28 06:28:52;;;;;;;;;;;13.80;99.90;;;;;;4983046;28;19921;-74
2022/06/28 06:31:19;;;;;;;;;;;13.80;99.90;;;;;;4998762;28;19921;-74
2022/06/28 06:34:06;;;;;;;;;;;13.90;99.90;;;;;;4998077;28;20459;-74
2022/06/28 06:36:46;;;;;;;;;;;13.90;99.90;;;;;;4999057;28;20249;-74
2022/06/28 06:39:15;;;;;;;;;;;13.90;99.90;;;;;;4982580;28;19936;-74
2022/06/28 06:41:42;;;;;;;;;;;13.90;99.90;;;;;;4997672;28;19929;-74
2022/06/28 06:44:10;;;;;;;;;;;14.00;99.90;;;;;;4998643;28;19921;-74
2022/06/28 06:46:41;;;;;;;;;;;14.10;99.90;;;;;;5014170;28;20360;-74
2022/06/28 06:49:09;;;;;;;;;;;14.10;99.90;;;;;;4998954;28;20260;-74
2022/06/28 06:51:37;;;;;;;;;;;14.20;99.90;;;;;;4998548;28;19940;-75
2022/06/28 06:54:04;;;;;;;;;;;14.30;99.90;;;;;;4997257;28;19928;-75
2022/06/28 06:56:32;;;;;;;;;;;14.30;99.90;;;;;;4998262;28;19929;-75
2022/06/28 06:58:59;;;;;;;;;;;14.30;99.90;;;;;;4997628;28;19921;-74
2022/06/28 07:01:29;;;;;;;;;;;14.40;99.90;;;;;;5014129;28;19925;-75
2022/06/28 07:04:19;;;;;;;;;;;14.40;99.90;;;;;;4997915;28;19928;-74
2022/06/28 07:06:46;;;;;;;;;;;14.50;99.90;;;;;;5014050;28;19926;-74
2022/06/28 07:09:14;;;;;;;;;;;14.50;99.90;;;;;;4997828;28;19928;-75
2022/06/28 07:11:41;;;;;;;;;;;14.50;99.90;;;;;;4997847;28;19921;-74
2022/06/28 07:14:09;;;;;;;;;;;14.60;99.90;;;;;;4996566;28;19928;-74
2022/06/28 07:16:38;;;;;;;;;;;14.60;99.90;;;;;;5016229;28;20336;-75
2022/06/28 07:19:05;;;;;;;;;;;14.70;99.90;;;;;;5033917;28;19925;-74
2022/06/28 07:21:33;;;;;;;;;;;14.70;99.90;;;;;;5033595;28;19921;-75
2022/06/28 07:24:01;;;;;;;;;;;14.70;99.90;;;;;;5033852;28;19921;-75
2022/06/28 07:26:35;;;;;;;;;;;14.70;99.90;;;;;;5032667;28;19921;-74
2022/06/28 07:29:04;;;;;;;;;;;14.80;99.90;;;;;;5019796;28;19932;-75
2022/06/28 07:31:37;;;;;;;;;;;14.90;99.90;;;;;;5038033;28;19921;-74
2022/06/28 07:34:05;;;;;;;;;;;15.00;99.60;;;;;;5036791;28;19928;-74
2022/06/28 07:36:32;;;;;;;;;;;15.00;99.70;;;;;;5037752;28;19921;-74
2022/06/28 07:39:01;;;;;;;;;;;15.00;99.50;;;;;;5037794;28;19921;-75
2022/06/28 07:41:47;;;;;;;;;;;15.10;98.70;;;;;;5037536;28;19925;-75
2022/06/28 07:44:33;;;;;;;;;;;15.20;98.30;;;;;;5037583;28;19921;-75
2022/06/28 07:47:01;;;;;;;;;;;15.20;97.90;;;;;;5049422;28;20290;-75
2022/06/28 07:52:33;;;;;;;;;;;15.30;98.30;;;;;;5038207;28;20276;-75
2022/06/28 07:52:35;;;;;;;;;;;15.40;98.20;;;;;;5049647;28;19943;-73
2022/06/28 07:55:08;;;;;;;;;;;15.60;97.10;;;;;;5056606;28;19924;-76
2022/06/28 07:57:59;;;;;;;;;;;15.70;95.80;;;;;;5038448;28;19921;-75
2022/06/28 08:00:29;;;;;;;;;;;15.80;95.10;;;;;;5035495;28;19921;-76
2022/06/28 08:03:09;;;;;;;;;;;16.00;95.10;;;;;;5037450;28;19921;-75
2022/06/28 08:05:37;;;;;;;;;;;16.20;94.20;;;;;;5038074;28;20351;-76
2022/06/28 08:08:05;;;;;;;;;;;16.40;93.50;;;;;;5037519;28;20278;-75
2022/06/28 08:10:35;;;;;;;;;;;16.60;93.20;;;;;;5021598;28;20259;-75
2022/06/28 08:13:05;;;;;;;;;;;16.70;92.50;;;;;;5036946;28;19921;-75
2022/06/28 08:15:32;;;;;;;;;;;16.80;92.90;;;;;;5004787;28;19920;-75
2022/06/28 08:18:00;;;;;;;;;;;16.90;92.70;;;;;;5038841;28;19928;-76
2022/06/28 08:20:31;;;;;;;;;;;17.00;92.50;;;;;;5037120;28;19936;-75
2022/06/28 08:23:00;;;;;;;;;;;17.00;91.60;;;;;;5004794;28;20351;-75
2022/06/28 08:25:28;;;;;;;;;;;16.90;91.50;;;;;;5037312;28;19921;-75
2022/06/28 08:27:55;;;;;;;;;;;16.90;91.60;;;;;;5036218;28;19921;-74
2022/06/28 08:30:25;;;;;;;;;;;16.80;91.80;;;;;;5020496;28;19921;-75
2022/06/28 08:32:53;;;;;;;;;;;16.90;91.90;;;;;;5037737;28;19928;-73
2022/06/28 08:35:23;;;;;;;;;;;16.90;91.70;;;;;;5036954;28;19932;-73
2022/06/28 08:37:50;;;;;;;;;;;17.00;91.90;;;;;;5037761;28;19928;-73
2022/06/28 08:40:22;;;;;;;;;;;17.10;91.40;;;;;;5036486;28;19921;-73
2022/06/28 08:42:53;;;;;;;;;;;17.20;90.60;;;;;;5037573;28;19921;-73
2022/06/28 08:45:21;;;;;;;;;;;17.40;90.40;;;;;;5036410;28;20336;-74
2022/06/28 08:47:52;;;;;;;;;;;17.60;90.00;;;;;;5036538;28;19921;-74
2022/06/28 08:50:37;;;;;;;;;;;17.80;88.00;;;;;;5037329;28;19921;-74
2022/06/28 08:53:06;;;;;;;;;;;18.00;89.20;;;;;;5036294;28;19921;-74
2022/06/28 08:55:34;;;;;;;;;;;18.20;88.20;;;;;;5036324;28;19921;-74
2022/06/28 08:58:04;;;;;;;;;;;18.30;88.30;;;;;;5036547;28;19921;-75
2022/06/28 09:00:32;;;;;;;;;;;18.40;87.10;;;;;;5036059;28;19921;-74
2022/06/28 09:02:59;;;;;;;;;;;18.60;86.60;;;;;;5037481;28;19921;-75
2022/06/28 09:05:28;;;;;;;;;;;18.70;86.80;;;;;;5020043;28;20359;-75
2022/06/28 09:07:59;;;;;;;;;;;18.80;85.60;;;;;;5036283;28;19921;-74
2022/06/28 09:10:31;;;;;;;;;;;18.80;84.50;;;;;;5036627;28;19921;-74
2022/06/28 09:13:19;;;;;;;;;;;18.70;83.90;;;;;;5036457;28;20238;-74
2022/06/28 09:15:48;;;;;;;;;;;18.70;86.20;;;;;;5024622;28;19928;-74
2022/06/28 09:18:19;;;;;;;;;;;18.80;85.30;;;;;;5017362;28;19921;-74
2022/06/28 09:20:56;;;;;;;;;;;18.90;85.30;;;;;;5016640;28;19921;-74
2022/06/28 09:23:30;;;;;;;;;;;19.00;84.30;;;;;;5017415;28;20370;-74
2022/06/28 09:26:03;;;;;;;;;;;19.00;84.30;;;;;;5017400;28;19926;-74
2022/06/28 09:28:31;;;;;;;;;;;19.10;83.60;;;;;;5016023;28;19921;-74
2022/06/28 09:31:20;;;;;;;;;;;19.10;84.90;;;;;;5017215;28;19921;-75
2022/06/28 09:34:01;;;;;;;;;;;19.00;84.20;;;;;;4999447;28;19932;-74
2022/06/28 09:36:32;;;;;;;;;;;19.10;84.50;;;;;;5000315;28;19921;-74
2022/06/28 09:39:16;;;;;;;;;;;19.10;83.50;;;;;;5016848;28;19921;-74
2022/06/28 09:41:47;;;;;;;;;;;19.40;82.70;;;;;;5015730;28;19921;-74
2022/06/28 09:44:38;;;;;;;;;;;20.30;82.80;;;;;;5016322;28;19925;-74
2022/06/28 09:47:06;;;;;;;;;;;19.60;81.40;;;;;;5015611;28;19922;-74
2022/06/28 09:49:37;;;;;;;;;;;19.60;80.80;;;;;;4999223;28;19928;-74
2022/06/28 09:52:04;;;;;;;;;;;19.50;81.60;;;;;;4998281;28;19921;-75
2022/06/28 09:54:33;;;;;;;;;;;18.80;81.20;;;;;;5015486;28;19929;-74
2022/06/28 09:57:03;;;;;;;;;;;19.50;81.00;;;;;;5016496;28;20295;-74
2022/06/28 09:59:30;;;;;;;;;;;19.50;81.30;;;;;;5016540;28;19925;-74
2022/06/28 10:01:58;;;;;;;;;;;19.50;81.00;;;;;;5014997;28;19940;-74
2022/06/28 10:04:26;;;;;;;;;;;19.70;80.90;;;;;;5016170;28;19928;-75
2022/06/28 10:06:58;;;;;;;;;;;19.90;81.10;;;;;;5015148;28;20356;-74
2022/06/28 10:09:25;;;;;;;;;;;20.00;80.00;;;;;;5015978;28;19928;-75
2022/06/28 10:17:53;;;;;;;;;;;19.70;80.30;;;;;;5015937;28;19933;-74
2022/06/28 10:20:24;;;;;;;;;;;19.60;81.00;;;;;;4985540;28;19921;-73
2022/06/28 10:22:51;;;;;;;;;;;19.40;80.60;;;;;;5015741;28;19929;-75
2022/06/28 10:25:24;;;;;;;;;;;19.30;81.20;;;;;;5015618;28;19936;-74
2022/06/28 10:27:52;;;;;;;;;;;19.30;81.60;;;;;;4996426;28;19944;-75
2022/06/28 10:30:29;;;;;;;;;;;19.30;81.70;;;;;;5030377;28;19921;-73
2022/06/28 10:33:13;;;;;;;;;;;19.50;82.20;;;;;;5015273;28;19940;-74
2022/06/28 10:35:40;;;;;;;;;;;19.90;82.00;;;;;;5029905;28;19921;-75
2022/06/28 10:38:07;;;;;;;;;;;19.70;82.00;;;;;;5035984;28;19925;-75
2022/06/28 10:40:41;;;;;;;;;;;19.70;81.00;;;;;;5017054;28;19929;-75
2022/06/28 10:43:14;;;;;;;;;;;19.70;81.10;;;;;;5035472;28;19932;-72
2022/06/28 10:46:00;;;;;;;;;;;19.80;82.00;;;;;;5035069;28;19921;-73
2022/06/28 10:48:28;;;;;;;;;;;19.80;80.50;;;;;;4997073;28;19933;-72
2022/06/28 10:50:57;;;;;;;;;;;19.90;80.90;;;;;;5015035;28;19921;-72
2022/06/28 10:53:25;;;;;;;;;;;20.00;80.60;;;;;;5014189;28;20256;-73
2022/06/28 10:56:12;;;;;;;;;;;20.00;80.00;;;;;;5015249;28;19929;-76
2022/06/28 10:58:59;;;;;;;;;;;20.10;79.80;;;;;;5015360;28;19922;-75
2022/06/28 11:01:42;;;;;;;;;;;20.20;80.20;;;;;;5014265;28;20224;-76
2022/06/28 11:04:29;;;;;;;;;;;20.10;79.80;;;;;;5014801;28;19921;-72
2022/06/28 11:07:04;;;;;;;;;;;20.10;80.20;;;;;;5014121;28;19933;-73
2022/06/28 11:09:40;;;;;;;;;;;20.00;79.90;;;;;;4997961;28;19921;-76
2022/06/28 11:12:22;;;;;;;;;;;20.10;80.10;;;;;;4998967;28;19921;-76
2022/06/28 11:14:54;;;;;;;;;;;20.20;81.20;;;;;;5002316;28;19978;-76
2022/06/28 11:17:28;;;;;;;;;;;20.20;79.80;;;;;;5035477;28;20233;-76
2022/06/28 11:19:57;;;;;;;;;;;20.10;78.60;;;;;;5034154;28;20111;-73
2022/06/28 11:22:28;;;;;;;;;;;20.30;78.00;;;;;;5034774;28;19921;-76
2022/06/28 11:24:57;;;;;;;;;;;20.30;77.40;;;;;;5053513;28;19920;-72
2022/06/28 11:27:29;;;;;;;;;;;20.30;76.70;;;;;;5053218;28;19921;-76
2022/06/28 11:29:59;;;;;;;;;;;20.30;76.90;;;;;;5053545;28;19920;-75
2022/06/28 11:32:31;;;;;;;;;;;20.50;77.20;;;;;;5053749;28;19921;-76
2022/06/28 11:35:08;;;;;;;;;;;20.60;76.20;;;;;;5053612;28;19924;-76
2022/06/28 11:37:48;;;;;;;;;;;20.80;77.10;;;;;;5037413;28;19925;-75
2022/06/28 11:40:18;;;;;;;;;;;21.10;75.30;;;;;;5053463;28;19928;-75
2022/06/28 11:42:46;;;;;;;;;;;21.40;74.40;;;;;;5054224;28;20347;-76
2022/06/28 11:45:14;;;;;;;;;;;21.50;73.40;;;;;;5054340;28;19920;-75
2022/06/28 11:47:43;;;;;;;;;;;21.50;73.40;;;;;;5053090;28;19939;-75
2022/06/28 11:50:17;;;;;;;;;;;21.50;73.40;;;;;;5054406;28;19921;-75
2022/06/28 11:52:49;;;;;;;;;;;21.40;73.10;;;;;;5054467;28;19921;-75
2022/06/28 11:55:18;;;;;;;;;;;21.60;74.30;;;;;;5053534;28;19920;-76
2022/06/28 11:57:45;;;;;;;;;;;21.70;73.90;;;;;;5054316;28;19920;-76
2022/06/28 12:00:14;;;;;;;;;;;21.70;73.20;;;;;;5053285;28;19925;-76
2022/06/28 12:02:51;;;;;;;;;;;21.60;72.80;;;;;;5054117;28;20278;-76
2022/06/28 12:05:30;;;;;;;;;;;20.40;72.30;;;;;;5054179;28;19932;-76
2022/06/28 12:07:58;;;;;;;;;;;21.70;70.20;;;;;;5051712;28;19921;-76
2022/06/28 12:10:28;;;;;;;;;;;21.90;71.00;;;;;;5054226;28;19921;-76
2022/06/28 12:12:59;;;;;;;;;;;22.10;70.50;;;;;;5053379;28;19920;-76
2022/06/28 12:15:32;;;;;;;;;;;22.20;69.50;;;;;;5045570;28;19940;-77
2022/06/28 12:18:03;;;;;;;;;;;22.20;70.90;;;;;;5037901;28;19921;-76
2022/06/28 12:20:32;;;;;;;;;;;22.20;69.40;;;;;;5036853;28;19921;-76
2022/06/28 12:23:02;;;;;;;;;;;22.30;68.50;;;;;;5012307;28;19925;-76
2022/06/28 12:25:32;;;;;;;;;;;22.40;68.30;;;;;;5019909;28;20332;-75
2022/06/28 12:28:00;;;;;;;;;;;22.40;68.10;;;;;;5016766;28;19925;-75
2022/06/28 12:30:30;;;;;;;;;;;22.30;68.40;;;;;;5000495;28;20291;-76
2022/06/28 12:32:59;;;;;;;;;;;22.30;68.30;;;;;;5017002;28;19921;-75
2022/06/28 12:35:27;;;;;;;;;;;22.50;69.40;;;;;;5017808;28;20256;-75
2022/06/28 12:37:56;;;;;;;;;;;22.40;68.40;;;;;;5001137;28;19922;-75
2022/06/28 12:40:25;;;;;;;;;;;22.30;66.90;;;;;;5016571;28;19922;-74
2022/06/28 12:42:55;;;;;;;;;;;22.30;67.60;;;;;;5017731;28;19921;-75
2022/06/28 12:45:22;;;;;;;;;;;22.40;68.20;;;;;;5017296;28;19925;-75
2022/06/28 12:47:50;;;;;;;;;;;22.50;67.30;;;;;;5016579;28;19925;-76
2022/06/28 12:50:17;;;;;;;;;;;22.70;68.20;;;;;;5000489;28;20459;-76
2022/06/28 12:52:45;;;;;;;;;;;22.90;67.90;;;;;;5017605;28;19932;-76
2022/06/28 12:55:13;;;;;;;;;;;23.10;67.20;;;;;;5016314;28;20233;-76
2022/06/28 12:57:41;;;;;;;;;;;23.20;66.00;;;;;;5017444;28;19932;-76
2022/06/28 13:00:10;;;;;;;;;;;23.20;65.80;;;;;;5016539;28;19928;-75
2022/06/28 13:02:37;;;;;;;;;;;23.00;66.10;;;;;;5017688;28;19921;-75
2022/06/28 13:05:05;;;;;;;;;;;23.00;66.70;;;;;;5017347;28;19921;-75
2022/06/28 13:07:33;;;;;;;;;;;22.90;67.30;;;;;;5016327;28;19944;-75
2022/06/28 13:10:02;;;;;;;;;;;23.00;65.80;;;;;;5017419;28;19921;-75
2022/06/28 13:12:31;;;;;;;;;;;23.10;65.70;;;;;;5017827;28;19922;-75
2022/06/28 13:14:58;;;;;;;;;;;23.20;63.00;;;;;;5016301;28;19922;-75
2022/06/28 13:17:26;;;;;;;;;;;23.20;63.40;;;;;;5017256;28;19929;-77
2022/06/28 13:19:53;;;;;;;;;;;23.30;63.40;;;;;;4998306;28;20340;-76
2022/06/28 13:22:41;;;;;;;;;;;23.20;63.30;;;;;;5017108;28;19933;-76
2022/06/28 13:25:08;;;;;;;;;;;23.30;64.70;;;;;;5017239;28;19922;-75
2022/06/28 13:27:36;;;;;;;;;;;23.20;63.90;;;;;;5015728;28;19921;-75
2022/06/28 13:30:04;;;;;;;;;;;24.40;61.60;;;;;;4999821;28;19936;-75
2022/06/28 13:32:32;;;;;;;;;;;25.60;60.40;;;;;;4999803;28;19921;-76
2022/06/28 13:34:59;;;;;;;;;;;26.70;58.80;;;;;;5015878;28;19936;-77
2022/06/28 13:37:29;;;;;;;;;;;27.80;57.40;;;;;;5017114;28;20259;-75
2022/06/28 13:40:12;;;;;;;;;;;28.30;54.70;;;;;;5016096;28;19921;-75
2022/06/28 13:42:42;;;;;;;;;;;28.80;54.90;;;;;;4999992;28;19921;-75
2022/06/28 13:45:09;;;;;;;;;;;29.50;53.60;;;;;;5016698;28;19921;-76
2022/06/28 13:47:38;;;;;;;;;;;30.20;54.90;;;;;;5015672;28;19921;-76
2022/06/28 13:50:06;;;;;;;;;;;30.30;53.50;;;;;;4999645;28;19933;-75
2022/06/28 13:52:34;;;;;;;;;;;29.30;53.90;;;;;;5016694;28;19921;-75
2022/06/28 13:55:06;;;;;;;;;;;29.20;54.00;;;;;;4998516;28;19921;-75
2022/06/28 13:57:33;;;;;;;;;;;28.60;55.30;;;;;;4999488;28;19928;-76
2022/06/28 14:00:03;;;;;;;;;;;28.90;54.30;;;;;;4998318;28;19925;-76
2022/06/28 14:02:33;;;;;;;;;;;29.80;54.50;;;;;;5016869;28;20279;-75
2022/06/28 14:05:01;;;;;;;;;;;31.00;55.00;;;;;;5016459;28;19925;-75
2022/06/28 14:07:28;;;;;;;;;;;32.20;54.00;;;;;;5015251;28;19921;-75
2022/06/28 14:09:55;;;;;;;;;;;33.10;52.40;;;;;;5016155;28;20267;-75
2022/06/28 14:12:23;;;;;;;;;;;33.20;52.10;;;;;;5016215;28;19922;-74
2022/06/28 14:14:50;;;;;;;;;;;32.40;51.90;;;;;;5015031;28;20241;-75
2022/06/28 14:17:18;;;;;;;;;;;30.80;52.40;;;;;;5016374;28;19928;-75
2022/06/28 14:19:45;;;;;;;;;;;29.10;54.20;;;;;;5015002;28;19921;-75
2022/06/28 14:22:13;;;;;;;;;;;28.40;55.60;;;;;;4999137;28;19922;-75
2022/06/28 14:24:40;;;;;;;;;;;27.50;56.70;;;;;;5016248;28;19926;-76
2022/06/28 14:27:08;;;;;;;;;;;27.70;58.50;;;;;;4997936;28;19921;-76
2022/06/28 14:29:38;;;;;;;;;;;28.70;57.10;;;;;;4983767;28;19936;-75
2022/06/28 14:32:05;;;;;;;;;;;29.40;55.20;;;;;;5015961;28;20268;-74
2022/06/28 14:34:33;;;;;;;;;;;29.10;54.90;;;;;;5015049;28;20249;-75
2022/06/28 14:37:00;;;;;;;;;;;29.50;55.20;;;;;;5015811;28;19932;-76
2022/06/28 14:39:28;;;;;;;;;;;28.90;55.00;;;;;;5015159;28;19921;-76
2022/06/28 14:41:55;;;;;;;;;;;28.70;55.00;;;;;;5014691;28;19922;-75
2022/06/28 14:44:23;;;;;;;;;;;29.10;53.90;;;;;;4998810;28;19932;-76
2022/06/28 14:46:52;;;;;;;;;;;29.30;53.30;;;;;;4997343;28;19921;-76
2022/06/28 14:49:22;;;;;;;;;;;30.30;53.40;;;;;;5015768;28;19921;-76
2022/06/28 14:51:52;;;;;;;;;;;31.10;52.40;;;;;;4998993;28;19921;-78
2022/06/28 14:54:20;;;;;;;;;;;32.00;51.50;;;;;;5007580;28;19932;-77